sensor_id;sensor_type;location;lat;lon;timestamp;P1;durP1;ratioP1;P2;durP2;ratioP2
9424;SDS011;17139;52.140;11.636;2023-02-23T00:01:09;3.87;;;3.47;;
9424;SDS011;17139;52.140;11.636;2023-02-23T00:03:39;3.73;;;2.90;;
9424;SDS011;17139;52.140;11.636;2023-02-23T00:06:06;5.70;;;3.20;;
9424;SDS011;17139;52.140;11.636;2023-02-23T00:08:34;7.23;;;4.03;;
9424;SDS011;17139;52.140;11.636;2023-02-23T00:11:02;5.10;;;3.47;;
9424;SDS011;17139;52.140;11.636;2023-02-23T00:13:30;4.10;;;3.60;;
9424;SDS011;17139;52.140;11.636;2023-02-23T00:16:02;7.60;;;5.00;;
9424;SDS011;17139;52.140;11.636;2023-02-23T00:18:30;8.98;;;5.00;;
9424;SDS011;17139;52.140;11.636;2023-02-23T00:21:10;4.07;;;3.73;;
9424;SDS011;17139;52.140;11.636;2023-02-23T00:23:40;7.47;;;3.37;;
9424;SDS011;17139;52.140;11.636;2023-02-23T00:26:10;3.60;;;2.93;;
9424;SDS011;17139;52.140;11.636;2023-02-23T00:28:38;5.63;;;2.90;;
9424;SDS011;17139;52.140;11.636;2023-02-23T00:31:07;6.43;;;3.47;;
9424;SDS011;17139;52.140;11.636;2023-02-23T00:33:35;3.30;;;3.00;;
9424;SDS011;17139;52.140;11.636;2023-02-23T00:36:03;3.00;;;2.60;;
9424;SDS011;17139;52.140;11.636;2023-02-23T00:38:33;8.00;;;4.77;;
9424;SDS011;17139;52.140;11.636;2023-02-23T00:41:04;6.37;;;3.53;;
9424;SDS011;17139;52.140;11.636;2023-02-23T00:43:33;9.27;;;3.87;;
9424;SDS011;17139;52.140;11.636;2023-02-23T00:46:01;3.43;;;3.13;;
9424;SDS011;17139;52.140;11.636;2023-02-23T00:48:32;3.37;;;3.07;;
9424;SDS011;17139;52.140;11.636;2023-02-23T00:51:00;5.37;;;3.00;;
9424;SDS011;17139;52.140;11.636;2023-02-23T00:53:27;4.97;;;2.77;;
9424;SDS011;17139;52.140;11.636;2023-02-23T00:55:56;3.17;;;2.97;;
9424;SDS011;17139;52.140;11.636;2023-02-23T00:58:23;6.82;;;3.30;;
9424;SDS011;17139;52.140;11.636;2023-02-23T01:00:51;7.78;;;3.72;;
9424;SDS011;17139;52.140;11.636;2023-02-23T01:03:19;3.50;;;3.20;;
9424;SDS011;17139;52.140;11.636;2023-02-23T01:05:46;5.73;;;2.60;;
9424;SDS011;17139;52.140;11.636;2023-02-23T01:08:14;4.80;;;3.40;;
9424;SDS011;17139;52.140;11.636;2023-02-23T01:10:43;2.33;;;2.17;;
9424;SDS011;17139;52.140;11.636;2023-02-23T01:13:19;3.43;;;2.47;;
9424;SDS011;17139;52.140;11.636;2023-02-23T01:15:46;3.53;;;3.23;;
9424;SDS011;17139;52.140;11.636;2023-02-23T01:18:14;4.33;;;2.83;;
9424;SDS011;17139;52.140;11.636;2023-02-23T01:20:42;10.07;;;4.72;;
9424;SDS011;17139;52.140;11.636;2023-02-23T01:23:10;6.40;;;3.30;;
9424;SDS011;17139;52.140;11.636;2023-02-23T01:25:39;7.50;;;3.20;;
9424;SDS011;17139;52.140;11.636;2023-02-23T01:28:08;3.40;;;3.13;;
9424;SDS011;17139;52.140;11.636;2023-02-23T01:30:37;4.97;;;3.03;;
9424;SDS011;17139;52.140;11.636;2023-02-23T01:33:04;4.97;;;3.27;;
9424;SDS011;17139;52.140;11.636;2023-02-23T01:35:32;6.30;;;3.00;;
9424;SDS011;17139;52.140;11.636;2023-02-23T01:38:00;3.07;;;2.87;;
9424;SDS011;17139;52.140;11.636;2023-02-23T01:40:27;7.75;;;4.25;;
9424;SDS011;17139;52.140;11.636;2023-02-23T01:42:55;4.53;;;3.20;;
9424;SDS011;17139;52.140;11.636;2023-02-23T01:45:26;5.23;;;3.50;;
9424;SDS011;17139;52.140;11.636;2023-02-23T01:47:59;6.23;;;3.67;;
9424;SDS011;17139;52.140;11.636;2023-02-23T01:50:29;8.80;;;4.47;;
9424;SDS011;17139;52.140;11.636;2023-02-23T01:53:02;5.07;;;3.37;;
9424;SDS011;17139;52.140;11.636;2023-02-23T01:55:30;6.87;;;3.83;;
9424;SDS011;17139;52.140;11.636;2023-02-23T01:58:00;3.90;;;3.03;;
9424;SDS011;17139;52.140;11.636;2023-02-23T02:00:32;3.80;;;3.30;;
9424;SDS011;17139;52.140;11.636;2023-02-23T02:03:03;3.83;;;3.40;;
9424;SDS011;17139;52.140;11.636;2023-02-23T02:05:36;7.30;;;3.13;;
9424;SDS011;17139;52.140;11.636;2023-02-23T02:08:04;2.87;;;2.67;;
9424;SDS011;17139;52.140;11.636;2023-02-23T02:10:35;2.90;;;2.70;;
9424;SDS011;17139;52.140;11.636;2023-02-23T02:13:09;3.78;;;3.35;;
9424;SDS011;17139;52.140;11.636;2023-02-23T02:15:42;8.60;;;4.20;;
9424;SDS011;17139;52.140;11.636;2023-02-23T02:18:31;7.50;;;3.47;;
9424;SDS011;17139;52.140;11.636;2023-02-23T02:24:26;4.50;;;3.10;;
9424;SDS011;17139;52.140;11.636;2023-02-23T02:27:23;7.57;;;3.53;;
9424;SDS011;17139;52.140;11.636;2023-02-23T02:30:17;5.13;;;2.77;;
9424;SDS011;17139;52.140;11.636;2023-02-23T02:36:09;6.85;;;3.90;;
9424;SDS011;17139;52.140;11.636;2023-02-23T02:39:07;12.30;;;5.00;;
9424;SDS011;17139;52.140;11.636;2023-02-23T02:41:49;4.57;;;3.47;;
9424;SDS011;17139;52.140;11.636;2023-02-23T02:44:25;3.70;;;2.80;;
9424;SDS011;17139;52.140;11.636;2023-02-23T02:46:56;2.77;;;2.60;;
9424;SDS011;17139;52.140;11.636;2023-02-23T02:49:28;2.93;;;2.83;;
9424;SDS011;17139;52.140;11.636;2023-02-23T02:52:02;5.40;;;3.17;;
9424;SDS011;17139;52.140;11.636;2023-02-23T02:54:35;6.27;;;2.73;;
9424;SDS011;17139;52.140;11.636;2023-02-23T02:57:05;3.15;;;2.80;;
9424;SDS011;17139;52.140;11.636;2023-02-23T02:59:41;7.25;;;4.00;;
9424;SDS011;17139;52.140;11.636;2023-02-23T03:02:26;6.00;;;3.47;;
9424;SDS011;17139;52.140;11.636;2023-02-23T03:05:11;5.63;;;2.63;;
9424;SDS011;17139;52.140;11.636;2023-02-23T03:08:00;3.00;;;2.77;;
9424;SDS011;17139;52.140;11.636;2023-02-23T03:10:53;2.73;;;2.63;;
9424;SDS011;17139;52.140;11.636;2023-02-23T03:13:45;6.43;;;3.03;;
9424;SDS011;17139;52.140;11.636;2023-02-23T03:16:36;3.33;;;3.03;;
9424;SDS011;17139;52.140;11.636;2023-02-23T03:19:27;3.60;;;3.20;;
9424;SDS011;17139;52.140;11.636;2023-02-23T03:22:16;7.93;;;4.13;;
9424;SDS011;17139;52.140;11.636;2023-02-23T03:25:07;5.20;;;3.60;;
9424;SDS011;17139;52.140;11.636;2023-02-23T03:27:56;4.53;;;3.40;;
9424;SDS011;17139;52.140;11.636;2023-02-23T03:30:50;3.53;;;2.73;;
9424;SDS011;17139;52.140;11.636;2023-02-23T03:33:40;2.53;;;2.43;;
9424;SDS011;17139;52.140;11.636;2023-02-23T03:36:31;6.73;;;3.23;;
9424;SDS011;17139;52.140;11.636;2023-02-23T03:39:20;4.17;;;2.90;;
9424;SDS011;17139;52.140;11.636;2023-02-23T03:42:14;7.43;;;4.95;;
9424;SDS011;17139;52.140;11.636;2023-02-23T03:45:03;3.73;;;3.43;;
9424;SDS011;17139;52.140;11.636;2023-02-23T03:47:50;4.03;;;3.00;;
9424;SDS011;17139;52.140;11.636;2023-02-23T03:50:38;4.53;;;3.40;;
9424;SDS011;17139;52.140;11.636;2023-02-23T03:53:27;3.00;;;2.70;;
9424;SDS011;17139;52.140;11.636;2023-02-23T03:56:14;4.23;;;3.40;;
9424;SDS011;17139;52.140;11.636;2023-02-23T03:59:03;3.27;;;3.07;;
9424;SDS011;17139;52.140;11.636;2023-02-23T04:01:50;6.28;;;4.22;;
9424;SDS011;17139;52.140;11.636;2023-02-23T04:04:38;6.53;;;2.97;;
9424;SDS011;17139;52.140;11.636;2023-02-23T04:07:25;4.03;;;3.17;;
9424;SDS011;17139;52.140;11.636;2023-02-23T04:10:09;7.65;;;4.68;;
9424;SDS011;17139;52.140;11.636;2023-02-23T04:12:56;8.87;;;4.13;;
9424;SDS011;17139;52.140;11.636;2023-02-23T04:15:44;5.27;;;3.37;;
9424;SDS011;17139;52.140;11.636;2023-02-23T04:18:14;9.60;;;3.13;;
9424;SDS011;17139;52.140;11.636;2023-02-23T04:20:42;3.30;;;3.10;;
9424;SDS011;17139;52.140;11.636;2023-02-23T04:23:09;5.43;;;3.33;;
9424;SDS011;17139;52.140;11.636;2023-02-23T04:25:39;3.90;;;3.53;;
9424;SDS011;17139;52.140;11.636;2023-02-23T04:28:06;3.73;;;3.43;;
9424;SDS011;17139;52.140;11.636;2023-02-23T04:30:33;5.03;;;3.87;;
9424;SDS011;17139;52.140;11.636;2023-02-23T04:33:02;4.70;;;3.00;;
9424;SDS011;17139;52.140;11.636;2023-02-23T04:35:29;3.70;;;3.13;;
9424;SDS011;17139;52.140;11.636;2023-02-23T04:37:56;4.43;;;3.50;;
9424;SDS011;17139;52.140;11.636;2023-02-23T04:40:23;5.50;;;3.43;;
9424;SDS011;17139;52.140;11.636;2023-02-23T04:42:51;5.47;;;3.90;;
9424;SDS011;17139;52.140;11.636;2023-02-23T04:45:19;3.73;;;3.43;;
9424;SDS011;17139;52.140;11.636;2023-02-23T04:47:48;9.07;;;3.50;;
9424;SDS011;17139;52.140;11.636;2023-02-23T04:50:17;3.73;;;3.13;;
9424;SDS011;17139;52.140;11.636;2023-02-23T04:52:44;3.43;;;3.23;;
9424;SDS011;17139;52.140;11.636;2023-02-23T04:55:14;4.00;;;3.70;;
9424;SDS011;17139;52.140;11.636;2023-02-23T04:57:43;6.43;;;5.05;;
9424;SDS011;17139;52.140;11.636;2023-02-23T05:00:10;6.40;;;4.17;;
9424;SDS011;17139;52.140;11.636;2023-02-23T05:02:38;6.77;;;3.90;;
9424;SDS011;17139;52.140;11.636;2023-02-23T05:05:05;6.43;;;3.73;;
9424;SDS011;17139;52.140;11.636;2023-02-23T05:07:35;4.67;;;4.10;;
9424;SDS011;17139;52.140;11.636;2023-02-23T05:10:03;4.83;;;3.33;;
9424;SDS011;17139;52.140;11.636;2023-02-23T05:12:31;3.73;;;3.40;;
9424;SDS011;17139;52.140;11.636;2023-02-23T05:14:58;3.37;;;3.07;;
9424;SDS011;17139;52.140;11.636;2023-02-23T05:17:25;6.85;;;4.53;;
9424;SDS011;17139;52.140;11.636;2023-02-23T05:19:52;9.00;;;5.43;;
9424;SDS011;17139;52.140;11.636;2023-02-23T05:22:19;6.20;;;5.10;;
9424;SDS011;17139;52.140;11.636;2023-02-23T05:24:47;4.75;;;4.38;;
9424;SDS011;17139;52.140;11.636;2023-02-23T05:27:14;6.37;;;4.20;;
9424;SDS011;17139;52.140;11.636;2023-02-23T05:29:42;5.37;;;3.90;;
9424;SDS011;17139;52.140;11.636;2023-02-23T05:32:09;4.83;;;4.20;;
9424;SDS011;17139;52.140;11.636;2023-02-23T05:34:36;11.07;;;6.90;;
9424;SDS011;17139;52.140;11.636;2023-02-23T05:37:03;5.93;;;5.32;;
9424;SDS011;17139;52.140;11.636;2023-02-23T05:39:31;5.47;;;5.00;;
9424;SDS011;17139;52.140;11.636;2023-02-23T05:41:59;4.20;;;3.90;;
9424;SDS011;17139;52.140;11.636;2023-02-23T05:44:26;10.48;;;6.38;;
9424;SDS011;17139;52.140;11.636;2023-02-23T05:46:53;7.32;;;5.00;;
9424;SDS011;17139;52.140;11.636;2023-02-23T05:49:20;5.63;;;3.83;;
9424;SDS011;17139;52.140;11.636;2023-02-23T05:51:48;4.73;;;3.90;;
9424;SDS011;17139;52.140;11.636;2023-02-23T05:54:15;4.30;;;3.57;;
9424;SDS011;17139;52.140;11.636;2023-02-23T05:56:42;7.00;;;5.10;;
9424;SDS011;17139;52.140;11.636;2023-02-23T05:59:11;7.07;;;4.90;;
9424;SDS011;17139;52.140;11.636;2023-02-23T06:01:38;8.57;;;5.78;;
9424;SDS011;17139;52.140;11.636;2023-02-23T06:04:05;4.57;;;4.17;;
9424;SDS011;17139;52.140;11.636;2023-02-23T06:06:32;7.57;;;4.10;;
9424;SDS011;17139;52.140;11.636;2023-02-23T06:09:00;4.50;;;4.10;;
9424;SDS011;17139;52.140;11.636;2023-02-23T06:11:27;5.17;;;4.67;;
9424;SDS011;17139;52.140;11.636;2023-02-23T06:13:56;5.73;;;4.20;;
9424;SDS011;17139;52.140;11.636;2023-02-23T06:16:25;6.77;;;3.80;;
9424;SDS011;17139;52.140;11.636;2023-02-23T06:18:53;9.15;;;5.90;;
9424;SDS011;17139;52.140;11.636;2023-02-23T06:21:20;8.77;;;6.13;;
9424;SDS011;17139;52.140;11.636;2023-02-23T06:23:47;5.40;;;4.30;;
9424;SDS011;17139;52.140;11.636;2023-02-23T06:26:14;10.43;;;4.60;;
9424;SDS011;17139;52.140;11.636;2023-02-23T06:28:41;5.77;;;5.10;;
9424;SDS011;17139;52.140;11.636;2023-02-23T06:31:08;7.87;;;5.03;;
9424;SDS011;17139;52.140;11.636;2023-02-23T06:33:37;6.60;;;4.33;;
9424;SDS011;17139;52.140;11.636;2023-02-23T06:36:04;7.43;;;4.77;;
9424;SDS011;17139;52.140;11.636;2023-02-23T06:38:31;7.47;;;5.82;;
9424;SDS011;17139;52.140;11.636;2023-02-23T06:40:58;14.95;;;7.88;;
9424;SDS011;17139;52.140;11.636;2023-02-23T06:43:25;6.47;;;4.93;;
9424;SDS011;17139;52.140;11.636;2023-02-23T06:45:53;7.90;;;5.50;;
9424;SDS011;17139;52.140;11.636;2023-02-23T06:48:20;8.13;;;4.67;;
9424;SDS011;17139;52.140;11.636;2023-02-23T06:50:49;4.67;;;4.10;;
9424;SDS011;17139;52.140;11.636;2023-02-23T06:53:16;5.90;;;4.27;;
9424;SDS011;17139;52.140;11.636;2023-02-23T06:55:44;4.17;;;3.93;;
9424;SDS011;17139;52.140;11.636;2023-02-23T06:58:11;7.78;;;6.95;;
9424;SDS011;17139;52.140;11.636;2023-02-23T07:00:38;11.35;;;6.32;;
9424;SDS011;17139;52.140;11.636;2023-02-23T07:03:07;8.37;;;5.47;;
9424;SDS011;17139;52.140;11.636;2023-02-23T07:05:35;6.73;;;4.53;;
9424;SDS011;17139;52.140;11.636;2023-02-23T07:08:03;9.57;;;4.67;;
9424;SDS011;17139;52.140;11.636;2023-02-23T07:10:31;5.23;;;4.77;;
9424;SDS011;17139;52.140;11.636;2023-02-23T07:12:59;4.60;;;4.30;;
9424;SDS011;17139;52.140;11.636;2023-02-23T07:15:26;8.10;;;6.57;;
9424;SDS011;17139;52.140;11.636;2023-02-23T07:17:53;8.30;;;6.93;;
9424;SDS011;17139;52.140;11.636;2023-02-23T07:20:21;6.37;;;4.70;;
9424;SDS011;17139;52.140;11.636;2023-02-23T07:22:48;5.47;;;4.53;;
9424;SDS011;17139;52.140;11.636;2023-02-23T07:25:17;8.30;;;4.83;;
9424;SDS011;17139;52.140;11.636;2023-02-23T07:27:44;4.93;;;4.57;;
9424;SDS011;17139;52.140;11.636;2023-02-23T07:30:12;6.10;;;4.50;;
9424;SDS011;17139;52.140;11.636;2023-02-23T07:32:39;5.30;;;4.90;;
9424;SDS011;17139;52.140;11.636;2023-02-23T07:35:06;5.65;;;4.88;;
9424;SDS011;17139;52.140;11.636;2023-02-23T07:37:34;5.40;;;4.70;;
9424;SDS011;17139;52.140;11.636;2023-02-23T07:40:01;5.03;;;4.53;;
9424;SDS011;17139;52.140;11.636;2023-02-23T07:42:30;8.70;;;5.53;;
9424;SDS011;17139;52.140;11.636;2023-02-23T07:44:57;4.47;;;4.17;;
9424;SDS011;17139;52.140;11.636;2023-02-23T07:47:24;6.03;;;4.60;;
9424;SDS011;17139;52.140;11.636;2023-02-23T07:49:55;5.23;;;4.73;;
9424;SDS011;17139;52.140;11.636;2023-02-23T07:52:23;5.70;;;5.15;;
9424;SDS011;17139;52.140;11.636;2023-02-23T07:54:51;5.70;;;4.63;;
9424;SDS011;17139;52.140;11.636;2023-02-23T07:57:18;5.37;;;4.83;;
9424;SDS011;17139;52.140;11.636;2023-02-23T07:59:47;5.80;;;5.37;;
9424;SDS011;17139;52.140;11.636;2023-02-23T08:02:14;9.75;;;7.47;;
9424;SDS011;17139;52.140;11.636;2023-02-23T08:04:41;5.47;;;5.10;;
9424;SDS011;17139;52.140;11.636;2023-02-23T08:07:08;8.57;;;5.23;;
9424;SDS011;17139;52.140;11.636;2023-02-23T08:09:35;5.27;;;4.97;;
9424;SDS011;17139;52.140;11.636;2023-02-23T08:12:03;6.57;;;5.07;;
9424;SDS011;17139;52.140;11.636;2023-02-23T08:14:30;5.77;;;4.77;;
9424;SDS011;17139;52.140;11.636;2023-02-23T08:16:59;5.83;;;5.33;;
9424;SDS011;17139;52.140;11.636;2023-02-23T08:19:26;10.13;;;6.17;;
9424;SDS011;17139;52.140;11.636;2023-02-23T08:21:53;6.23;;;5.73;;
9424;SDS011;17139;52.140;11.636;2023-02-23T08:24:21;14.80;;;7.93;;
9424;SDS011;17139;52.140;11.636;2023-02-23T08:26:48;12.07;;;6.00;;
9424;SDS011;17139;52.140;11.636;2023-02-23T08:29:16;6.30;;;5.77;;
9424;SDS011;17139;52.140;11.636;2023-02-23T08:31:43;7.00;;;6.17;;
9424;SDS011;17139;52.140;11.636;2023-02-23T08:34:11;8.13;;;7.13;;
9424;SDS011;17139;52.140;11.636;2023-02-23T08:36:39;10.17;;;7.97;;
9424;SDS011;17139;52.140;11.636;2023-02-23T08:39:09;16.60;;;8.13;;
9424;SDS011;17139;52.140;11.636;2023-02-23T08:41:36;9.60;;;8.70;;
9424;SDS011;17139;52.140;11.636;2023-02-23T08:44:03;11.67;;;10.47;;
9424;SDS011;17139;52.140;11.636;2023-02-23T08:46:31;14.75;;;10.90;;
9424;SDS011;17139;52.140;11.636;2023-02-23T08:48:58;14.20;;;10.83;;
9424;SDS011;17139;52.140;11.636;2023-02-23T08:51:27;15.97;;;11.20;;
9424;SDS011;17139;52.140;11.636;2023-02-23T08:53:54;18.43;;;12.13;;
9424;SDS011;17139;52.140;11.636;2023-02-23T08:56:21;18.73;;;12.20;;
9424;SDS011;17139;52.140;11.636;2023-02-23T08:58:49;20.88;;;16.63;;
9424;SDS011;17139;52.140;11.636;2023-02-23T09:01:17;15.10;;;13.60;;
9424;SDS011;17139;52.140;11.636;2023-02-23T09:03:46;22.08;;;17.08;;
9424;SDS011;17139;52.140;11.636;2023-02-23T09:06:14;21.57;;;13.00;;
9424;SDS011;17139;52.140;11.636;2023-02-23T09:08:44;20.65;;;12.60;;
9424;SDS011;17139;52.140;11.636;2023-02-23T09:11:11;18.33;;;12.73;;
9424;SDS011;17139;52.140;11.636;2023-02-23T09:13:38;18.65;;;12.45;;
9424;SDS011;17139;52.140;11.636;2023-02-23T09:16:06;20.30;;;12.95;;
9424;SDS011;17139;52.140;11.636;2023-02-23T09:18:33;21.08;;;13.68;;
9424;SDS011;17139;52.140;11.636;2023-02-23T09:21:01;24.38;;;19.17;;
9424;SDS011;17139;52.140;11.636;2023-02-23T09:23:31;21.55;;;15.70;;
9424;SDS011;17139;52.140;11.636;2023-02-23T09:26:02;23.45;;;17.65;;
9424;SDS011;17139;52.140;11.636;2023-02-23T09:28:30;23.42;;;17.02;;
9424;SDS011;17139;52.140;11.636;2023-02-23T09:30:58;23.73;;;17.95;;
9424;SDS011;17139;52.140;11.636;2023-02-23T09:33:30;22.02;;;17.42;;
9424;SDS011;17139;52.140;11.636;2023-02-23T09:35:57;29.55;;;18.33;;
9424;SDS011;17139;52.140;11.636;2023-02-23T09:38:25;32.40;;;23.50;;
9424;SDS011;17139;52.140;11.636;2023-02-23T09:40:52;33.47;;;21.35;;
9424;SDS011;17139;52.140;11.636;2023-02-23T09:43:22;26.42;;;20.25;;
9424;SDS011;17139;52.140;11.636;2023-02-23T09:45:59;36.63;;;25.92;;
9424;SDS011;17139;52.140;11.636;2023-02-23T09:48:34;33.78;;;21.02;;
9424;SDS011;17139;52.140;11.636;2023-02-23T09:51:01;27.63;;;20.08;;
9424;SDS011;17139;52.140;11.636;2023-02-23T09:53:34;31.50;;;21.05;;
9424;SDS011;17139;52.140;11.636;2023-02-23T09:56:06;26.25;;;20.00;;
9424;SDS011;17139;52.140;11.636;2023-02-23T09:58:39;30.23;;;20.63;;
9424;SDS011;17139;52.140;11.636;2023-02-23T10:01:19;33.10;;;20.90;;
9424;SDS011;17139;52.140;11.636;2023-02-23T10:04:04;30.35;;;20.48;;
9424;SDS011;17139;52.140;11.636;2023-02-23T10:06:36;29.60;;;20.30;;
9424;SDS011;17139;52.140;11.636;2023-02-23T10:09:09;36.60;;;24.75;;
9424;SDS011;17139;52.140;11.636;2023-02-23T10:11:44;35.10;;;21.33;;
9424;SDS011;17139;52.140;11.636;2023-02-23T10:14:29;33.08;;;19.60;;
9424;SDS011;17139;52.140;11.636;2023-02-23T10:17:14;29.45;;;21.27;;
9424;SDS011;17139;52.140;11.636;2023-02-23T10:19:52;34.30;;;22.70;;
9424;SDS011;17139;52.140;11.636;2023-02-23T10:22:26;37.15;;;24.40;;
9424;SDS011;17139;52.140;11.636;2023-02-23T10:24:54;39.75;;;22.92;;
9424;SDS011;17139;52.140;11.636;2023-02-23T10:27:27;39.80;;;24.40;;
9424;SDS011;17139;52.140;11.636;2023-02-23T10:30:03;43.80;;;25.75;;
9424;SDS011;17139;52.140;11.636;2023-02-23T10:32:45;34.78;;;21.52;;
9424;SDS011;17139;52.140;11.636;2023-02-23T10:35:18;30.80;;;19.38;;
9424;SDS011;17139;52.140;11.636;2023-02-23T10:37:46;37.85;;;23.45;;
9424;SDS011;17139;52.140;11.636;2023-02-23T10:40:14;39.90;;;21.85;;
9424;SDS011;17139;52.140;11.636;2023-02-23T10:42:44;31.27;;;21.15;;
9424;SDS011;17139;52.140;11.636;2023-02-23T10:45:14;41.08;;;22.45;;
9424;SDS011;17139;52.140;11.636;2023-02-23T10:47:48;44.53;;;24.47;;
9424;SDS011;17139;52.140;11.636;2023-02-23T10:50:17;47.28;;;28.67;;
9424;SDS011;17139;52.140;11.636;2023-02-23T10:52:47;36.13;;;25.40;;
9424;SDS011;17139;52.140;11.636;2023-02-23T10:55:20;40.83;;;24.15;;
9424;SDS011;17139;52.140;11.636;2023-02-23T10:57:59;34.72;;;19.45;;
9424;SDS011;17139;52.140;11.636;2023-02-23T11:00:30;35.92;;;22.15;;
9424;SDS011;17139;52.140;11.636;2023-02-23T11:02:58;35.72;;;21.63;;
9424;SDS011;17139;52.140;11.636;2023-02-23T11:05:31;32.63;;;17.23;;
9424;SDS011;17139;52.140;11.636;2023-02-23T11:08:10;38.25;;;23.52;;
9424;SDS011;17139;52.140;11.636;2023-02-23T11:13:34;36.03;;;20.13;;
9424;SDS011;17139;52.140;11.636;2023-02-23T11:16:06;36.58;;;23.98;;
9424;SDS011;17139;52.140;11.636;2023-02-23T11:18:37;38.83;;;23.88;;
9424;SDS011;17139;52.140;11.636;2023-02-23T11:21:17;36.75;;;20.85;;
9424;SDS011;17139;52.140;11.636;2023-02-23T11:23:49;34.45;;;21.80;;
9424;SDS011;17139;52.140;11.636;2023-02-23T11:26:20;41.83;;;24.73;;
9424;SDS011;17139;52.140;11.636;2023-02-23T11:28:53;53.90;;;35.08;;
9424;SDS011;17139;52.140;11.636;2023-02-23T11:31:26;48.20;;;26.00;;
9424;SDS011;17139;52.140;11.636;2023-02-23T11:33:57;42.15;;;25.08;;
9424;SDS011;17139;52.140;11.636;2023-02-23T11:36:25;48.28;;;26.98;;
9424;SDS011;17139;52.140;11.636;2023-02-23T11:39:00;41.83;;;25.33;;
9424;SDS011;17139;52.140;11.636;2023-02-23T11:41:31;45.97;;;23.73;;
9424;SDS011;17139;52.140;11.636;2023-02-23T11:44:01;54.25;;;27.65;;
9424;SDS011;17139;52.140;11.636;2023-02-23T11:46:31;38.75;;;22.05;;
9424;SDS011;17139;52.140;11.636;2023-02-23T11:49:02;45.92;;;24.13;;
9424;SDS011;17139;52.140;11.636;2023-02-23T11:51:32;49.40;;;26.40;;
9424;SDS011;17139;52.140;11.636;2023-02-23T11:54:01;49.40;;;28.00;;
9424;SDS011;17139;52.140;11.636;2023-02-23T11:56:30;44.88;;;25.30;;
9424;SDS011;17139;52.140;11.636;2023-02-23T11:59:00;40.45;;;20.27;;
9424;SDS011;17139;52.140;11.636;2023-02-23T12:01:37;53.75;;;29.05;;
9424;SDS011;17139;52.140;11.636;2023-02-23T12:04:09;49.35;;;27.65;;
9424;SDS011;17139;52.140;11.636;2023-02-23T12:06:49;45.30;;;26.55;;
9424;SDS011;17139;52.140;11.636;2023-02-23T12:09:18;38.00;;;22.02;;
9424;SDS011;17139;52.140;11.636;2023-02-23T12:11:49;48.20;;;25.08;;
9424;SDS011;17139;52.140;11.636;2023-02-23T12:14:23;49.47;;;28.08;;
9424;SDS011;17139;52.140;11.636;2023-02-23T12:16:56;41.40;;;24.30;;
9424;SDS011;17139;52.140;11.636;2023-02-23T12:19:29;42.33;;;24.55;;
9424;SDS011;17139;52.140;11.636;2023-02-23T12:22:03;53.70;;;30.05;;
9424;SDS011;17139;52.140;11.636;2023-02-23T12:24:39;64.20;;;37.13;;
9424;SDS011;17139;52.140;11.636;2023-02-23T12:27:13;50.47;;;30.73;;
9424;SDS011;17139;52.140;11.636;2023-02-23T12:29:50;43.90;;;24.50;;
9424;SDS011;17139;52.140;11.636;2023-02-23T12:32:33;51.53;;;27.42;;
9424;SDS011;17139;52.140;11.636;2023-02-23T12:35:09;46.65;;;24.50;;
9424;SDS011;17139;52.140;11.636;2023-02-23T12:37:41;45.83;;;23.83;;
9424;SDS011;17139;52.140;11.636;2023-02-23T12:40:12;50.83;;;25.13;;
9424;SDS011;17139;52.140;11.636;2023-02-23T12:42:44;61.63;;;31.52;;
9424;SDS011;17139;52.140;11.636;2023-02-23T12:45:19;84.93;;;47.67;;
9424;SDS011;17139;52.140;11.636;2023-02-23T12:47:52;66.88;;;34.33;;
9424;SDS011;17139;52.140;11.636;2023-02-23T12:50:26;60.08;;;33.72;;
9424;SDS011;17139;52.140;11.636;2023-02-23T12:52:59;42.28;;;24.80;;
9424;SDS011;17139;52.140;11.636;2023-02-23T12:55:40;39.58;;;20.55;;
9424;SDS011;17139;52.140;11.636;2023-02-23T12:58:14;54.63;;;29.67;;
9424;SDS011;17139;52.140;11.636;2023-02-23T13:00:54;34.22;;;18.90;;
9424;SDS011;17139;52.140;11.636;2023-02-23T13:06:25;61.65;;;36.60;;
9424;SDS011;17139;52.140;11.636;2023-02-23T13:09:02;46.40;;;27.80;;
9424;SDS011;17139;52.140;11.636;2023-02-23T13:11:45;44.55;;;25.02;;
9424;SDS011;17139;52.140;11.636;2023-02-23T13:14:21;42.88;;;25.17;;
9424;SDS011;17139;52.140;11.636;2023-02-23T13:16:55;39.92;;;23.88;;
9424;SDS011;17139;52.140;11.636;2023-02-23T13:19:31;37.60;;;20.63;;
9424;SDS011;17139;52.140;11.636;2023-02-23T13:22:06;33.17;;;20.05;;
9424;SDS011;17139;52.140;11.636;2023-02-23T13:24:50;42.55;;;29.98;;
9424;SDS011;17139;52.140;11.636;2023-02-23T13:27:21;51.85;;;33.67;;
9424;SDS011;17139;52.140;11.636;2023-02-23T13:29:52;46.28;;;26.38;;
9424;SDS011;17139;52.140;11.636;2023-02-23T13:32:21;40.72;;;24.95;;
9424;SDS011;17139;52.140;11.636;2023-02-23T13:34:52;41.33;;;23.75;;
9424;SDS011;17139;52.140;11.636;2023-02-23T13:37:26;40.65;;;25.40;;
9424;SDS011;17139;52.140;11.636;2023-02-23T13:39:58;36.67;;;22.30;;
9424;SDS011;17139;52.140;11.636;2023-02-23T13:42:42;43.83;;;24.77;;
9424;SDS011;17139;52.140;11.636;2023-02-23T13:45:26;56.58;;;35.08;;
9424;SDS011;17139;52.140;11.636;2023-02-23T13:48:05;51.25;;;28.52;;
9424;SDS011;17139;52.140;11.636;2023-02-23T13:50:46;50.92;;;27.58;;
9424;SDS011;17139;52.140;11.636;2023-02-23T13:53:34;51.22;;;28.77;;
9424;SDS011;17139;52.140;11.636;2023-02-23T13:56:05;54.63;;;30.05;;
9424;SDS011;17139;52.140;11.636;2023-02-23T13:58:34;54.78;;;30.42;;
9424;SDS011;17139;52.140;11.636;2023-02-23T14:01:03;42.80;;;24.88;;
9424;SDS011;17139;52.140;11.636;2023-02-23T14:03:37;44.85;;;24.40;;
9424;SDS011;17139;52.140;11.636;2023-02-23T14:06:21;44.88;;;25.63;;
9424;SDS011;17139;52.140;11.636;2023-02-23T14:08:52;38.83;;;22.17;;
9424;SDS011;17139;52.140;11.636;2023-02-23T14:20:33;42.65;;;23.95;;
9424;SDS011;17139;52.140;11.636;2023-02-23T14:23:30;45.70;;;27.13;;
9424;SDS011;17139;52.140;11.636;2023-02-23T14:26:13;44.75;;;24.10;;
9424;SDS011;17139;52.140;11.636;2023-02-23T14:29:09;45.85;;;25.13;;
9424;SDS011;17139;52.140;11.636;2023-02-23T14:31:58;34.85;;;20.23;;
9424;SDS011;17139;52.140;11.636;2023-02-23T14:34:48;53.47;;;30.23;;
9424;SDS011;17139;52.140;11.636;2023-02-23T14:37:17;59.88;;;36.45;;
9424;SDS011;17139;52.140;11.636;2023-02-23T14:39:50;42.42;;;25.45;;
9424;SDS011;17139;52.140;11.636;2023-02-23T14:42:20;45.95;;;25.83;;
9424;SDS011;17139;52.140;11.636;2023-02-23T14:44:50;46.50;;;23.80;;
9424;SDS011;17139;52.140;11.636;2023-02-23T14:47:19;38.88;;;22.08;;
9424;SDS011;17139;52.140;11.636;2023-02-23T14:49:52;46.20;;;25.08;;
9424;SDS011;17139;52.140;11.636;2023-02-23T14:52:23;40.75;;;23.90;;
9424;SDS011;17139;52.140;11.636;2023-02-23T14:55:03;53.55;;;33.60;;
9424;SDS011;17139;52.140;11.636;2023-02-23T14:57:42;38.90;;;24.98;;
9424;SDS011;17139;52.140;11.636;2023-02-23T15:00:11;41.65;;;24.27;;
9424;SDS011;17139;52.140;11.636;2023-02-23T15:02:54;44.70;;;22.33;;
9424;SDS011;17139;52.140;11.636;2023-02-23T15:05:25;43.85;;;22.60;;
9424;SDS011;17139;52.140;11.636;2023-02-23T15:07:56;56.40;;;33.83;;
9424;SDS011;17139;52.140;11.636;2023-02-23T15:10:27;65.68;;;36.85;;
9424;SDS011;17139;52.140;11.636;2023-02-23T15:12:57;55.97;;;32.80;;
9424;SDS011;17139;52.140;11.636;2023-02-23T15:15:26;38.17;;;23.30;;
9424;SDS011;17139;52.140;11.636;2023-02-23T15:17:56;47.22;;;25.05;;
9424;SDS011;17139;52.140;11.636;2023-02-23T15:20:27;39.28;;;22.00;;
9424;SDS011;17139;52.140;11.636;2023-02-23T15:22:58;41.90;;;22.75;;
9424;SDS011;17139;52.140;11.636;2023-02-23T15:25:34;38.42;;;21.85;;
9424;SDS011;17139;52.140;11.636;2023-02-23T15:28:09;34.33;;;21.88;;